Камери на живо
METAR for:LBBG (Burgas Arpt, --, BU)
Text:LBBG 161630Z 13010KT CAVOK 24/14 Q1011 NOSIG
Temperature: 24.0°C ( 75°F)
Dewpoint: 14.0°C ( 57°F) [RH = 54%]
Pressure (altimeter):29.85 inches Hg (1011.0 mb)
Winds:from the SE (130 degrees) at 12 MPH (10 knots; 5.1 m/s)
Visibility:6 or more sm (10+ km)
Ceiling:ceiling and visibility are OK
Clouds:unknown

TAF for:LBBG (Burgas Arpt, --, BU) issued at 1100 UTC 16 Jul 2020
Text:TAF LBBG 161100Z 1612/1712 12012KT CAVOK
Forecast period:1200 to 1800 UTC 16 July 2020
Forecast type:FROM: standard forecast or significant change
Winds:from the ESE (120 degrees) at 14 MPH (12 knots; 6.2 m/s)
Visibility:6 or more sm (10+ km)
Clouds:missing
Weather:NSW (no significant weather)
Text:BECMG 1618/1620 VRB04KT
Forecast period:1800 UTC 16 July 2020 to 0800 UTC 17 July 2020
Forecast type:BECOMING: Conditions expected to become as follows by 2000 UTC 16 July 2020
Winds:variable direction winds at 5 MPH (4 knots; 2.1 m/s)
Visibility:6 or more sm (10+ km)
Clouds:missing
Weather:NSW (no significant weather)
Text:BECMG 1708/1710 11012KT
Forecast period:0800 to 1200 UTC 17 July 2020
Forecast type:BECOMING: Conditions expected to become as follows by 1000 UTC 17 July 2020
Winds:from the ESE (110 degrees) at 14 MPH (12 knots; 6.2 m/s)
Visibility:6 or more sm (10+ km)
Clouds:missing
Weather:NSW (no significant weather)